Latest Coastal Weather Observations for Middle Percy Island

IDQ60701

Issued at 10:42 am EST Sunday 1 February 2015 (issued every 10 minutes, with the page automatically refreshed every 10 minutes)

About coastal observations | Map of coastal stations | Coastal observations for QLD | Marine services | Other Formats
Station Details ID: 200001 Name: MIDDLE PERCY ISLAND Lat: -21.66 Lon: 150.27 Height: 208.7 m
Data from the previous 72 hours. | See also: Recent months at Middle Percy Island
Date/Time
EST
Temp

°C
Wind Pressure Rain
since 9am
mm
Weather Cloud Vis
km
Sea
Height
m
Swell
Dir
 
Speed
knots
Gust
knots
hPa Trend Height
m
Period
s
Dir
01/10:30am 28.8 WNW 4 8 1008.0 - 0.0 - - - - - - -
01/10:00am 28.1 NW 5 8 1008.0 - 0.0 - - - - - - -
01/09:30am 27.9 NW 5 8 1008.1 - 0.0 - - - - - - -
01/09:00am 28.0 W 4 7 1007.9 - 0.0 - - - - - - -
01/08:30am 27.7 W 3 5 1007.8 - 0.0 - - - - - - -
01/08:00am 26.9 W 2 4 1007.6 - 0.0 - - - - - - -
01/07:30am 26.3 WNW 3 5 1007.4 - 0.0 - - - - - - -
01/07:00am 25.8 NW 2 2 1007.2 - 0.0 - - - - - - -
01/06:30am 25.2 CALM 0 0 1006.9 - 0.0 - - - - - - -
01/06:00am 24.4 CALM 0 0 1006.5 - 0.0 - - - - - - -
01/05:30am 24.4 CALM 0 0 1006.1 - 0.0 - - - - - - -
01/05:00am 24.5 CALM 0 0 1006.0 - 0.0 - - - - - - -
01/04:30am 24.4 N 2 2 1005.7 - 0.0 - - - - - - -
01/04:00am 24.3 N 2 3 1005.7 - 0.0 - - - - - - -
01/03:30am 23.9 N 4 5 1005.7 - 0.0 - - - - - - -
01/03:00am 23.8 NNE 4 5 1005.7 - 0.0 - - - - - - -
01/02:30am 24.0 NNE 5 6 1006.1 - 0.0 - - - - - - -
01/02:00am 24.0 N 4 5 1006.3 - 0.0 - - - - - - -
01/01:30am 24.0 N 4 5 1006.6 - 0.0 - - - - - - -
01/01:00am 23.7 N 5 7 1006.9 - 0.0 - - - - - - -
01/12:30am 24.2 N 5 7 1007.1 - 0.0 - - - - - - -
01/12:00am 24.0 N 6 7 1007.3 - 0.0 - - - - - - -
 
Date/Time
EST
Temp

°C
Wind Pressure Rain
since 9am
mm
Weather Cloud Vis
km
Sea
Height
m
Swell
Dir
 
Speed
knots
Gust
knots
hPa Trend Height
m
Period
s
Dir
31/11:30pm 24.5 N 3 4 1007.5 - 0.0 - - - - - - -
31/11:00pm 24.4 N 4 7 1007.7 - 0.0 - - - - - - -
31/10:30pm 24.7 NNE 6 8 1007.6 - 0.0 - - - - - - -
31/10:00pm 24.8 NNE 5 7 1007.5 - 0.0 - - - - - - -
31/09:30pm 25.0 NNE 5 8 1007.6 - 0.0 - - - - - - -
31/09:00pm 24.8 NNE 7 8 1007.3 - 0.0 - - - - - - -
31/08:30pm 24.9 NNE 6 7 1007.2 - 0.0 - - - - - - -
31/08:00pm 25.0 NE 5 6 1007.0 - 0.0 - - - - - - -
31/07:30pm 24.9 NNE 5 5 1006.7 - 0.0 - - - - - - -
31/07:00pm 25.1 NNE 5 6 1006.5 - 0.0 - - - - - - -
31/06:30pm 25.6 NNE 4 6 1006.1 - 0.0 - - - - - - -
31/06:00pm 26.5 NE 4 5 1006.1 - 0.0 - - - - - - -
31/05:30pm 27.3 ENE 4 5 1006.0 - 0.0 - - - - - - -
31/05:00pm 27.4 NE 4 7 1005.7 - 0.0 - - - - - - -
31/04:30pm 28.3 SE 5 7 1005.7 - 0.0 - - - - - - -
31/04:00pm 28.4 SE 6 9 1005.6 - 0.0 - - - - - - -
31/03:30pm 29.0 E 5 7 1005.7 - 0.0 - - - - - - -
31/03:00pm 29.1 E 6 9 1005.7 - 0.0 - - - - - - -
31/02:30pm 28.1 SE 5 9 1006.3 - 0.0 - - - - - - -
31/02:00pm 28.4 SE 7 11 1006.7 - 0.0 - - - - - - -
31/01:30pm 28.6 SSE 8 11 1007.0 - 0.0 - - - - - - -
31/01:00pm 28.2 SSE 8 12 1007.3 - 0.0 - - - - - - -
31/12:30pm 28.4 SSE 9 12 1007.4 - 0.0 - - - - - - -
31/12:00pm 28.5 ESE 4 8 1007.4 - 0.0 - - - - - - -
31/11:30am 28.7 SSE 5 8 1008.1 - 0.0 - - - - - - -
31/11:00am 28.3 SE 6 10 1008.4 - 0.0 - - - - - - -
31/10:30am 28.2 ESE 5 9 1008.4 - 0.0 - - - - - - -
31/10:00am 28.0 ESE 5 9 1008.6 - 0.0 - - - - - - -
31/09:30am 28.2 ESE 6 9 1008.6 - 0.0 - - - - - - -
31/09:00am 27.6 SE 6 10 1008.6 - 1.4 - - - - - - -
31/08:30am 27.2 SE 6 9 1008.6 - 1.4 - - - - - - -
31/08:00am 26.2 SE 7 9 1008.4 - 1.4 - - - - - - -
31/07:30am 26.4 SE 7 10 1008.2 - 1.4 - - - - - - -
31/07:00am 25.8 ESE 7 11 1008.0 - 1.4 - - - - - - -
31/06:30am 25.4 ESE 5 9 1007.8 - 1.4 - - - - - - -
31/06:00am 24.3 ESE 5 7 1007.4 - 1.4 - - - - - - -
31/05:30am 24.3 E 6 9 1006.9 - 1.4 - - - - - - -
31/05:00am 24.4 E 5 9 1006.7 - 1.4 - - - - - - -
31/04:30am 24.3 E 7 9 1006.5 - 1.4 - - - - - - -
31/04:00am 24.3 E 6 9 1006.6 - 1.4 - - - - - - -
31/03:30am 24.2 E 5 8 1006.6 - 1.4 - - - - - - -
31/03:00am 24.2 ESE 5 7 1006.6 - 1.4 - - - - - - -
31/02:30am 24.4 E 6 9 1006.5 - 1.4 - - - - - - -
31/02:00am 24.3 E 6 8 1006.7 - 1.4 - - - - - - -
31/01:30am 24.5 E 7 9 1006.9 - 1.4 - - - - - - -
31/01:00am 24.5 E 5 9 1007.2 - 1.4 - - - - - - -
31/12:30am 24.7 E 5 9 1007.5 - 1.4 - - - - - - -
31/12:00am 24.7 E 7 11 1007.5 - 1.4 - - - - - - -
 
Date/Time
EST
Temp

°C
Wind Pressure Rain
since 9am
mm
Weather Cloud Vis
km
Sea
Height
m
Swell
Dir
 
Speed
knots
Gust
knots
hPa Trend Height
m
Period
s
Dir
30/11:30pm 24.6 E 5 9 1007.9 - 1.4 - - - - - - -
30/11:00pm 24.9 E 5 10 1008.2 - 1.4 - - - - - - -
30/10:30pm 24.7 ESE 5 9 1008.3 - 1.4 - - - - - - -
30/10:00pm 24.9 ESE 7 11 1008.2 - 1.4 - - - - - - -
30/09:30pm 24.9 ESE 7 12 1007.9 - 1.4 - - - - - - -
30/09:00pm 24.9 ESE 8 12 1007.7 - 1.4 - - - - - - -
30/08:30pm 25.0 ESE 10 17 1007.5 - 1.4 - - - - - - -
30/08:00pm 25.0 ESE 8 14 1007.3 - 1.4 - - - - - - -
30/07:30pm 25.2 ESE 12 18 1007.2 - 1.4 - - - - - - -
30/07:00pm 25.3 ESE 13 19 1006.9 - 1.4 - - - - - - -
30/06:30pm 25.4 ESE 12 18 1006.4 - 1.4 - - - - - - -
30/06:00pm 26.0 ESE 12 18 1006.0 - 1.4 - - - - - - -
30/05:30pm 26.4 ESE 13 17 1005.8 - 1.4 - - - - - - -
30/05:00pm 26.9 ESE 15 20 1005.5 - 1.4 - - - - - - -
30/04:30pm 26.8 SE 15 20 1005.6 - 1.4 - - - - - - -
30/04:00pm 26.8 SE 15 22 1005.6 - 1.4 - - - - - - -
30/03:30pm 27.6 SE 12 20 1005.7 - 1.4 - - - - - - -
30/03:00pm 26.9 SE 13 19 1006.0 - 1.4 - - - - - - -
30/02:30pm 27.2 SE 13 19 1005.9 - 1.4 - - - - - - -
30/02:00pm 27.3 SE 13 20 1006.0 - 1.4 - - - - - - -
30/01:30pm 26.9 SE 13 18 1006.4 - 1.4 - - - - - - -
30/01:00pm 27.1 SE 11 15 1006.7 - 1.4 - - - - - - -
30/12:30pm 26.4 SE 9 13 1007.3 - 1.4 - - - - - - -
30/12:00pm 27.6 ESE 11 15 1007.5 - 1.4 Recent precip. - - - - - -
30/11:30am 27.6 SE 12 17 1007.7 - 1.4 - - - - - - -
30/11:00am 27.1 SE 12 17 1007.8 - 1.2 - - - - - - -
30/10:30am 26.5 ESE 9 15 1007.9 - 1.2 - - - - - - -
30/10:00am 25.6 ESE 11 18 1007.9 - 1.2 - - - - - - -
30/09:30am 24.8 ESE 6 11 1007.8 - 1.2 - - - - - - -
30/09:00am 24.5 ESE 9 13 1007.6 - 7.0 Rain - - - - - -
30/08:30am 24.4 ESE 7 11 1007.2 - 6.8 - - - - - - -
30/08:00am 24.8 SE 13 19 1007.2 - 5.0 - - - - - - -
30/07:30am 25.0 SE 11 18 1007.1 - 4.8 - - - - - - -
30/07:00am 24.5 SE 10 17 1006.8 - 4.8 - - - - - - -
30/06:30am 24.9 ESE 10 15 1006.6 - 4.8 - - - - - - -
30/06:00am 24.0 ESE 7 12 1006.1 - 4.8 Rain - - - - - -
30/05:30am 24.4 ESE 9 14 1005.6 - 1.6 - - - - - - -
30/05:00am 24.2 ESE 9 14 1005.2 - 1.6 - - - - - - -
30/04:30am 23.9 ESE 9 13 1005.0 - 1.6 - - - - - - -
30/04:00am 24.8 SE 9 14 1004.8 - 0.6 - - - - - - -
30/03:30am 24.6 ESE 10 15 1005.3 - 0.6 - - - - - - -
30/03:00am 24.7 ESE 10 15 1005.5 - 0.6 - - - - - - -
30/02:30am 24.6 ESE 12 18 1005.5 - 0.6 - - - - - - -
30/02:00am 24.7 ESE 11 15 1006.0 - 0.6 - - - - - - -
30/01:30am 24.7 ESE 10 15 1006.4 - 0.6 - - - - - - -
30/01:00am 24.6 ESE 11 17 1006.7 - 0.6 - - - - - - -
30/12:30am 24.7 ESE 12 19 1006.8 - 0.6 - - - - - - -
30/12:00am 24.5 ESE 11 18 1007.0 - 0.6 - - - - - - -
 
Date/Time
EST
Temp

°C
Wind Pressure Rain
since 9am
mm
Weather Cloud Vis
km
Sea
Height
m
Swell
Dir
 
Speed
knots
Gust
knots
hPa Trend Height
m
Period
s
Dir
29/11:30pm 24.4 ESE 8 13 1007.3 - 0.6 - - - - - - -
29/11:00pm 24.8 ESE 9 16 1007.4 - 0.6 - - - - - - -
29/10:30pm 24.9 ESE 13 19 1007.6 - 0.6 - - - - - - -
29/10:00pm 24.9 ESE 16 21 1007.4 - 0.6 - - - - - - -
29/09:30pm 24.9 ESE 17 25 1007.1 - 0.6 - - - - - - -
29/09:00pm 24.9 SE 16 23 1006.9 - 0.6 - - - - - - -
29/08:30pm 24.9 SE 16 21 1006.6 - 0.6 - - - - - - -
29/08:00pm 24.9 SE 14 19 1006.5 - 0.6 - - - - - - -
29/07:30pm 24.7 SE 14 19 1006.4 - 0.6 - - - - - - -
29/07:00pm 24.6 SE 13 19 1006.1 - 0.6 - - - - - - -
29/06:30pm 24.1 SE 12 19 1005.5 - 0.6 - - - - - - -
29/06:00pm 23.4 SE 15 19 1005.1 - 0.6 - - - - - - -
29/05:30pm 23.6 SE 13 18 1004.8 - 0.6 - - - - - - -
29/05:00pm 23.5 SE 13 17 1004.6 - 0.6 - - - - - - -
29/04:30pm 23.4 ESE 11 17 1005.0 - 0.4 - - - - - - -
29/04:00pm 24.0 ESE 14 19 1004.5 - 0.2 - - - - - - -
29/03:30pm 25.0 SE 14 19 1004.4 - 0.2 - - - - - - -
29/03:00pm 25.4 SE 12 18 1004.4 - 0.2 - - - - - - -
29/02:30pm 25.6 SSE 14 17 1004.4 - 0.2 - - - - - - -
29/02:00pm 25.6 SSE 12 19 1004.8 - 0.2 - - - - - - -
29/01:30pm 26.8 SE 11 17 1004.5 - 0.2 - - - - - - -
29/01:00pm 26.8 SE 10 17 1004.5 - 0.2 - - - - - - -
29/12:30pm 26.8 SE 9 14 1005.2 - 0.2 - - - - - - -
29/12:00pm 26.5 SE 9 13 1005.2 - 0.2 - - - - - - -
29/11:30am 26.0 SE 10 14 1005.4 - 0.2 - - - - - - -
29/11:00am 26.1 ESE 9 15 1005.5 - 0.2 - - - - - - -

Other Formats:

Comma delimited format used in spreadsheet applications
http://www.bom.gov.au/fwo/IDQ60701/IDQ60701.94372.axf

JavaScript Object Notation format (JSON) in row-major order
http://www.bom.gov.au/fwo/IDQ60701/IDQ60701.94372.json